< < Back
Terminal Aerodrome Forecast


Current Version              Previous Versions:   1  2  3  4  5  6  7  8  9  

Terminal Aerodrome Forecast

473
FTUS42 KGSP 011726
TAFGSP
TAF
KGSP 011726Z 0118/0218 05003KT 5SM BR VCSH OVC008
      TEMPO 0118/0120 2SM -RA BR OVC004
     FM012200 17003KT 2SM BR OVC008
     FM020500 23005KT 2SM BR OVC003
     FM021600 29004KT P6SM BKN015=



Latest METAR

864
SAUS70 KWBC 021100 RRC
MTRGSP
METAR KGSP 021053Z AUTO 24008KT 1 1/4SM BR OVC001 07/07 A3020 RMK AO2
SLP226 T00720067


USA.gov is the U.S. government's official web portal to all federal, state and local government web resources and services.